createdAt,value
2022-12-31T00:00:07.755Z,99.90
2022-12-31T00:02:34.580Z,99.90
2022-12-31T00:05:01.401Z,99.90
2022-12-31T00:07:28.213Z,99.90
2022-12-31T00:09:54.850Z,99.90
2022-12-31T00:12:21.536Z,99.90
2022-12-31T00:14:48.213Z,99.90
2022-12-31T00:17:14.941Z,99.90
2022-12-31T00:19:41.604Z,99.90
2022-12-31T00:22:08.374Z,99.90
2022-12-31T00:24:35.886Z,99.90
2022-12-31T00:27:02.688Z,99.90
2022-12-31T00:29:29.348Z,99.90
2022-12-31T00:31:56.017Z,99.90
2022-12-31T00:34:22.665Z,99.90
2022-12-31T00:36:49.377Z,99.90
2022-12-31T00:39:16.205Z,99.90
2022-12-31T00:41:44.170Z,99.90
2022-12-31T00:44:13.826Z,99.90
2022-12-31T00:49:06.040Z,99.90
2022-12-31T00:51:33.056Z,99.90
2022-12-31T00:53:59.879Z,99.90
2022-12-31T00:56:27.822Z,99.90
2022-12-31T00:58:54.934Z,99.90
2022-12-31T01:01:25.834Z,99.90
2022-12-31T01:03:53.851Z,99.90
2022-12-31T01:06:21.021Z,99.90
2022-12-31T01:08:48.632Z,99.90
2022-12-31T01:11:24.480Z,99.90
2022-12-31T01:13:51.235Z,99.90
2022-12-31T01:16:19.162Z,99.90
2022-12-31T01:18:45.823Z,99.90
2022-12-31T01:21:13.331Z,99.90
2022-12-31T01:23:40.569Z,99.90
2022-12-31T01:26:08.458Z,99.90
2022-12-31T01:28:35.470Z,99.90
2022-12-31T01:31:06.315Z,99.90
2022-12-31T01:33:33.535Z,99.90
2022-12-31T01:36:07.772Z,99.90
2022-12-31T01:38:34.926Z,99.90
2022-12-31T01:41:04.044Z,99.90
2022-12-31T01:43:44.899Z,99.90
2022-12-31T01:46:14.183Z,99.90
2022-12-31T01:48:50.238Z,99.90
2022-12-31T01:51:17.177Z,99.90
2022-12-31T01:53:43.931Z,99.90
2022-12-31T01:56:10.726Z,99.90
2022-12-31T01:58:39.805Z,99.90
2022-12-31T02:01:07.855Z,99.90
2022-12-31T02:03:35.117Z,99.90
2022-12-31T02:06:13.413Z,99.90
2022-12-31T02:08:42.350Z,99.90
2022-12-31T02:11:23.272Z,99.90
2022-12-31T02:13:55.023Z,99.90
2022-12-31T02:16:27.501Z,99.90
2022-12-31T02:19:00.796Z,99.90
2022-12-31T02:21:51.079Z,99.90
2022-12-31T02:24:26.900Z,99.90
2022-12-31T02:26:59.454Z,99.90
2022-12-31T02:29:44.959Z,99.90
2022-12-31T02:32:16.699Z,99.90
2022-12-31T02:34:48.263Z,99.90
2022-12-31T02:37:15.837Z,99.90
2022-12-31T02:39:43.336Z,99.90
2022-12-31T02:42:10.643Z,99.90
2022-12-31T02:44:37.836Z,99.90
2022-12-31T02:47:07.601Z,99.90
2022-12-31T02:49:42.833Z,99.90
2022-12-31T02:52:09.413Z,99.90
2022-12-31T02:54:54.704Z,99.90
2022-12-31T02:57:21.483Z,99.90
2022-12-31T03:00:32.978Z,99.90
2022-12-31T03:03:00.952Z,99.90
2022-12-31T03:05:29.540Z,99.90
2022-12-31T03:07:56.489Z,99.90
2022-12-31T03:10:23.445Z,99.90
2022-12-31T03:12:51.479Z,99.90
2022-12-31T03:15:25.851Z,99.90
2022-12-31T03:17:58.331Z,99.90
2022-12-31T03:20:47.960Z,99.90
2022-12-31T03:23:16.939Z,99.90
2022-12-31T03:25:44.079Z,99.90
2022-12-31T03:28:15.242Z,99.90
2022-12-31T03:30:43.002Z,99.90
2022-12-31T03:33:09.719Z,99.90
2022-12-31T03:35:37.182Z,99.90
2022-12-31T03:38:04.453Z,99.90
2022-12-31T03:40:31.793Z,99.90
2022-12-31T03:42:58.357Z,99.90
2022-12-31T03:45:24.978Z,99.90
2022-12-31T03:47:51.641Z,99.90
2022-12-31T03:50:18.907Z,99.90
2022-12-31T03:52:45.997Z,99.90
2022-12-31T03:55:12.831Z,99.90
2022-12-31T03:57:39.544Z,99.90
2022-12-31T04:00:07.389Z,99.90
2022-12-31T04:02:34.159Z,99.90
2022-12-31T04:05:01.009Z,99.90
2022-12-31T04:07:27.710Z,99.90
2022-12-31T04:09:54.435Z,99.90
2022-12-31T04:12:21.066Z,99.90
2022-12-31T04:14:47.709Z,99.90
2022-12-31T04:17:14.422Z,99.90
2022-12-31T04:19:41.080Z,99.90
2022-12-31T04:22:07.823Z,99.90
2022-12-31T04:24:34.547Z,99.90
2022-12-31T04:27:07.295Z,99.90
2022-12-31T04:29:34.913Z,99.90
2022-12-31T04:32:01.663Z,99.90
2022-12-31T04:34:28.409Z,99.90
2022-12-31T04:36:55.249Z,99.90
2022-12-31T04:39:22.001Z,99.90
2022-12-31T04:41:48.739Z,99.90
2022-12-31T04:44:15.618Z,99.90
2022-12-31T04:46:42.502Z,99.90
2022-12-31T04:49:09.369Z,99.90
2022-12-31T04:51:36.456Z,99.90
2022-12-31T04:54:03.815Z,99.90
2022-12-31T04:56:30.513Z,99.90
2022-12-31T04:58:57.193Z,99.90
2022-12-31T05:01:24.031Z,99.90
2022-12-31T05:03:51.308Z,99.90
2022-12-31T05:06:19.133Z,99.90
2022-12-31T05:08:46.190Z,99.90
2022-12-31T05:11:12.844Z,99.90
2022-12-31T05:13:39.869Z,99.90
2022-12-31T05:16:06.885Z,99.90
2022-12-31T05:18:33.895Z,99.90
2022-12-31T05:21:00.867Z,99.90
2022-12-31T05:23:27.520Z,99.90
2022-12-31T05:25:54.159Z,99.90
2022-12-31T05:28:21.142Z,99.90
2022-12-31T05:30:48.671Z,99.90
2022-12-31T05:33:15.596Z,99.90
2022-12-31T05:35:42.292Z,99.90
2022-12-31T05:38:08.924Z,99.90
2022-12-31T05:40:35.583Z,99.90
2022-12-31T05:43:02.237Z,99.90
2022-12-31T05:45:31.185Z,99.90
2022-12-31T05:47:58.121Z,99.90
2022-12-31T05:50:24.907Z,99.90
2022-12-31T05:52:51.589Z,99.90
2022-12-31T05:55:18.323Z,99.90
2022-12-31T05:57:44.989Z,99.90
2022-12-31T06:00:12.000Z,99.90
2022-12-31T06:02:38.659Z,99.90
2022-12-31T06:05:05.611Z,99.90
2022-12-31T06:07:32.468Z,99.90
2022-12-31T06:09:59.126Z,99.90
2022-12-31T06:12:25.882Z,99.90
2022-12-31T06:14:52.580Z,99.90
2022-12-31T06:17:19.222Z,99.90
2022-12-31T06:19:46.783Z,99.90
2022-12-31T06:22:13.527Z,99.90
2022-12-31T06:24:40.241Z,99.90
2022-12-31T06:27:06.950Z,99.90
2022-12-31T06:29:33.712Z,99.90
2022-12-31T06:32:00.387Z,99.90
2022-12-31T06:34:27.076Z,99.90
2022-12-31T06:36:53.665Z,99.90
2022-12-31T06:39:20.404Z,99.90
2022-12-31T06:41:47.035Z,99.90
2022-12-31T06:44:14.883Z,99.90
2022-12-31T06:46:41.693Z,99.90
2022-12-31T06:49:08.462Z,99.90
2022-12-31T06:51:35.184Z,99.90
2022-12-31T06:54:01.933Z,99.90
2022-12-31T06:56:33.961Z,99.90
2022-12-31T06:59:02.063Z,99.90
2022-12-31T07:01:33.484Z,99.90
2022-12-31T07:04:06.167Z,99.90
2022-12-31T07:06:44.184Z,99.90
2022-12-31T07:09:13.673Z,99.90
2022-12-31T07:11:52.496Z,99.90
2022-12-31T07:14:38.946Z,99.90
2022-12-31T07:17:08.556Z,99.90
2022-12-31T07:19:41.067Z,99.90
2022-12-31T07:22:10.128Z,99.90
2022-12-31T07:24:36.934Z,99.90
2022-12-31T07:27:22.403Z,99.90
2022-12-31T07:30:11.373Z,99.90
2022-12-31T07:32:37.983Z,99.90
2022-12-31T07:35:07.706Z,99.90
2022-12-31T07:37:37.394Z,99.90
2022-12-31T07:40:11.059Z,99.90
2022-12-31T07:42:42.416Z,99.90
2022-12-31T07:45:21.173Z,99.90
2022-12-31T07:47:48.045Z,99.90
2022-12-31T07:50:16.059Z,99.90
2022-12-31T07:52:43.140Z,99.90
2022-12-31T07:55:10.863Z,99.90
2022-12-31T07:57:57.971Z,99.90
2022-12-31T08:00:24.968Z,99.90
2022-12-31T08:02:51.703Z,99.90
2022-12-31T08:05:31.833Z,99.90
2022-12-31T08:08:16.592Z,99.90
2022-12-31T08:11:01.690Z,99.90
2022-12-31T08:13:28.448Z,99.90
2022-12-31T08:15:55.265Z,99.90
2022-12-31T08:18:22.073Z,99.90
2022-12-31T08:20:55.055Z,99.90
2022-12-31T08:23:26.027Z,99.90
2022-12-31T08:25:55.709Z,99.90
2022-12-31T08:28:40.782Z,99.90
2022-12-31T08:31:13.926Z,99.90
2022-12-31T08:34:03.882Z,99.90
2022-12-31T08:36:43.643Z,97.00
2022-12-31T08:39:21.541Z,95.90
2022-12-31T08:41:49.416Z,95.70
2022-12-31T08:44:23.044Z,93.10
2022-12-31T08:47:08.220Z,91.60
2022-12-31T08:49:35.553Z,91.60
2022-12-31T08:52:02.836Z,91.40
2022-12-31T08:54:29.612Z,91.20
2022-12-31T08:57:30.393Z,91.30
2022-12-31T09:00:06.633Z,90.90
2022-12-31T09:02:54.287Z,91.70
2022-12-31T09:05:39.019Z,92.50
2022-12-31T09:08:11.264Z,93.90
2022-12-31T09:10:43.913Z,95.30
2022-12-31T09:13:22.719Z,95.90
2022-12-31T09:16:07.966Z,96.80
2022-12-31T09:18:37.319Z,97.20
2022-12-31T09:21:04.122Z,97.60
2022-12-31T09:23:31.022Z,97.90
2022-12-31T09:26:03.429Z,98.10
2022-12-31T09:28:30.232Z,98.00
2022-12-31T09:30:56.817Z,98.10
2022-12-31T09:33:52.898Z,98.10
2022-12-31T09:36:24.273Z,97.90
2022-12-31T09:39:09.737Z,97.20
2022-12-31T09:42:02.933Z,97.30
2022-12-31T09:44:32.413Z,96.70
2022-12-31T09:47:17.657Z,95.30
2022-12-31T09:49:58.040Z,92.70
2022-12-31T09:52:30.720Z,90.70
2022-12-31T09:54:57.578Z,88.10
2022-12-31T09:57:26.984Z,84.00
2022-12-31T10:00:12.320Z,81.10
2022-12-31T10:02:41.997Z,78.50
2022-12-31T10:05:35.619Z,78.60
2022-12-31T10:08:12.981Z,77.80
2022-12-31T10:10:42.886Z,76.50
2022-12-31T10:13:09.652Z,76.10
2022-12-31T10:15:48.418Z,77.50
2022-12-31T10:18:17.866Z,78.30
2022-12-31T10:20:50.327Z,79.70
2022-12-31T10:23:17.138Z,78.80
2022-12-31T10:25:43.796Z,76.40
2022-12-31T10:28:22.212Z,74.90
2022-12-31T10:30:55.116Z,74.70
2022-12-31T10:33:33.152Z,75.70
2022-12-31T10:36:08.976Z,75.50
2022-12-31T10:38:55.549Z,74.10
2022-12-31T10:41:22.143Z,74.40
2022-12-31T10:44:09.103Z,74.10
2022-12-31T10:46:45.257Z,75.50
2022-12-31T10:49:30.553Z,74.40
2022-12-31T10:52:09.234Z,73.10
2022-12-31T10:54:45.007Z,75.40
2022-12-31T10:57:17.748Z,75.10
2022-12-31T11:00:03.657Z,77.20
2022-12-31T11:02:49.158Z,75.80
2022-12-31T11:05:34.864Z,75.20
2022-12-31T11:08:19.774Z,74.80
2022-12-31T11:10:52.218Z,76.90
2022-12-31T11:13:33.317Z,78.10
2022-12-31T11:16:20.390Z,77.20
2022-12-31T11:19:10.195Z,77.30
2022-12-31T11:21:55.737Z,79.10
2022-12-31T11:24:41.027Z,79.40
2022-12-31T11:27:16.379Z,79.20
2022-12-31T11:29:52.427Z,78.90
2022-12-31T11:32:19.028Z,78.90
2022-12-31T11:34:45.780Z,79.20
2022-12-31T11:37:31.099Z,78.40
2022-12-31T11:40:00.789Z,78.00
2022-12-31T11:42:46.357Z,77.60
2022-12-31T11:45:31.387Z,77.70
2022-12-31T11:48:29.686Z,79.90
2022-12-31T11:51:09.263Z,80.40
2022-12-31T11:53:39.151Z,81.20
2022-12-31T11:56:05.880Z,80.40
2022-12-31T11:58:32.760Z,80.60
2022-12-31T12:01:00.875Z,79.70
2022-12-31T12:03:27.830Z,79.70
2022-12-31T12:05:56.440Z,79.80
2022-12-31T12:08:24.912Z,79.70
2022-12-31T12:10:53.722Z,79.60
2022-12-31T12:13:23.064Z,79.10
2022-12-31T12:15:57.012Z,79.50
2022-12-31T12:18:42.074Z,80.30
2022-12-31T12:21:11.710Z,80.40
2022-12-31T12:23:39.037Z,80.90
2022-12-31T12:26:06.536Z,80.80
2022-12-31T12:28:44.652Z,79.50
2022-12-31T12:31:18.347Z,80.60
2022-12-31T12:33:45.913Z,81.50
2022-12-31T12:36:13.903Z,82.00
2022-12-31T12:38:41.012Z,82.80
2022-12-31T12:41:10.891Z,83.00
2022-12-31T12:43:38.010Z,83.40
2022-12-31T12:46:06.227Z,83.00
2022-12-31T12:48:40.962Z,84.10
2022-12-31T12:51:10.920Z,84.00
2022-12-31T12:54:03.618Z,84.40
2022-12-31T12:56:36.325Z,85.60
2022-12-31T12:59:21.504Z,86.10
2022-12-31T13:01:57.861Z,85.90
2022-12-31T13:04:36.765Z,85.90
2022-12-31T13:07:13.743Z,86.40
2022-12-31T13:09:40.468Z,86.80
2022-12-31T13:12:07.976Z,86.10
2022-12-31T13:14:41.007Z,86.50
2022-12-31T13:17:20.063Z,86.40
2022-12-31T13:20:06.214Z,86.60
2022-12-31T13:22:36.755Z,87.00
2022-12-31T13:25:15.593Z,87.30
2022-12-31T13:27:46.191Z,87.00
2022-12-31T13:30:18.277Z,87.40
2022-12-31T13:32:47.320Z,87.30
2022-12-31T13:35:30.639Z,88.30
2022-12-31T13:38:05.851Z,88.30
2022-12-31T13:40:44.763Z,87.70
2022-12-31T13:43:35.231Z,87.60
2022-12-31T13:46:14.570Z,87.90
2022-12-31T13:48:55.864Z,87.80
2022-12-31T13:51:23.168Z,88.40
2022-12-31T13:54:05.220Z,88.50
2022-12-31T13:56:35.956Z,88.40
2022-12-31T13:59:12.640Z,88.60
2022-12-31T14:01:46.465Z,88.50
2022-12-31T14:04:39.517Z,88.80
2022-12-31T14:07:06.176Z,89.10
2022-12-31T14:09:33.957Z,89.00
2022-12-31T14:12:00.595Z,89.40
2022-12-31T14:14:31.630Z,89.90
2022-12-31T14:17:04.055Z,90.30
2022-12-31T14:19:49.584Z,90.40
2022-12-31T14:22:31.458Z,90.90
2022-12-31T14:24:59.651Z,91.20
2022-12-31T14:27:29.865Z,91.60
2022-12-31T14:30:07.273Z,92.40
2022-12-31T14:32:33.854Z,92.50
2022-12-31T14:35:14.078Z,92.70
2022-12-31T14:37:51.430Z,93.30
2022-12-31T14:40:23.795Z,93.90
2022-12-31T14:42:56.718Z,94.00
2022-12-31T14:45:35.535Z,94.10
2022-12-31T14:48:10.796Z,94.80
2022-12-31T14:50:38.059Z,95.50
2022-12-31T14:53:06.355Z,96.00
2022-12-31T14:55:34.898Z,95.80
2022-12-31T14:58:27.166Z,96.20
2022-12-31T15:00:54.870Z,97.10
2022-12-31T15:03:22.786Z,97.20
2022-12-31T15:06:01.764Z,97.60
2022-12-31T15:08:35.380Z,98.10
2022-12-31T15:11:05.227Z,98.20
2022-12-31T15:13:34.645Z,98.40
2022-12-31T15:16:19.631Z,99.00
2022-12-31T15:18:46.313Z,99.40
2022-12-31T15:21:20.811Z,99.80
2022-12-31T15:23:49.687Z,99.90
2022-12-31T15:26:22.263Z,99.90
2022-12-31T15:28:56.946Z,99.90
2022-12-31T15:31:23.848Z,99.90
2022-12-31T15:33:56.385Z,99.90
2022-12-31T15:36:24.626Z,99.90
2022-12-31T15:38:51.694Z,99.90
2022-12-31T15:41:18.520Z,99.90
2022-12-31T15:43:51.086Z,99.90
2022-12-31T15:46:22.516Z,99.90
2022-12-31T15:49:06.827Z,99.90
2022-12-31T15:51:48.646Z,99.90
2022-12-31T15:54:27.898Z,99.90
2022-12-31T15:56:54.600Z,99.90
2022-12-31T15:59:22.073Z,99.90
2022-12-31T16:01:48.933Z,99.90
2022-12-31T16:04:20.305Z,99.90
2022-12-31T16:06:50.862Z,99.90
2022-12-31T16:09:22.894Z,99.90
2022-12-31T16:11:50.498Z,99.90
2022-12-31T16:14:49.543Z,99.90
2022-12-31T16:17:36.519Z,99.90
2022-12-31T16:20:21.017Z,99.90
2022-12-31T16:22:52.132Z,99.90
2022-12-31T16:25:30.836Z,99.90
2022-12-31T16:27:58.124Z,99.90
2022-12-31T16:30:32.587Z,99.90
2022-12-31T16:33:00.759Z,99.90
2022-12-31T16:35:29.016Z,99.90
2022-12-31T16:38:01.579Z,99.90
2022-12-31T16:40:28.350Z,99.90
2022-12-31T16:42:55.021Z,99.90
2022-12-31T16:45:29.942Z,99.90
2022-12-31T16:47:57.443Z,99.90
2022-12-31T16:50:24.790Z,99.90
2022-12-31T16:52:57.796Z,99.90
2022-12-31T16:55:28.503Z,99.90
2022-12-31T16:58:04.165Z,99.90
2022-12-31T17:00:31.960Z,99.90
2022-12-31T17:03:15.910Z,99.90
2022-12-31T17:05:54.815Z,99.90
2022-12-31T17:08:28.900Z,99.90
2022-12-31T17:10:56.558Z,99.90
2022-12-31T17:13:32.134Z,99.90
2022-12-31T17:15:59.227Z,99.90
2022-12-31T17:18:27.523Z,99.90
2022-12-31T17:20:54.879Z,99.90
2022-12-31T17:23:24.404Z,99.90
2022-12-31T17:25:57.693Z,99.90
2022-12-31T17:28:25.309Z,99.90
2022-12-31T17:30:52.422Z,99.90
2022-12-31T17:33:22.045Z,99.90
2022-12-31T17:35:49.405Z,99.90
2022-12-31T17:38:21.843Z,99.90
2022-12-31T17:40:53.026Z,99.90
2022-12-31T17:43:21.148Z,99.90
2022-12-31T17:45:50.118Z,99.90
2022-12-31T17:48:17.726Z,99.90
2022-12-31T17:50:48.754Z,99.90
2022-12-31T17:53:15.810Z,99.90
2022-12-31T17:55:45.364Z,99.90
2022-12-31T17:58:29.839Z,99.90
2022-12-31T18:00:57.460Z,99.90
2022-12-31T18:03:24.245Z,99.90
2022-12-31T18:05:50.874Z,99.90
2022-12-31T18:08:17.550Z,99.90
2022-12-31T18:10:44.750Z,99.90
2022-12-31T18:13:17.456Z,99.90
2022-12-31T18:15:44.728Z,99.90
2022-12-31T18:18:24.783Z,99.90
2022-12-31T18:21:07.029Z,99.90
2022-12-31T18:23:33.670Z,99.90
2022-12-31T18:26:00.387Z,99.90
2022-12-31T18:28:27.105Z,99.90
2022-12-31T18:30:53.803Z,99.90
2022-12-31T18:33:23.805Z,99.90
2022-12-31T18:36:08.793Z,99.90
2022-12-31T18:38:36.810Z,99.90
2022-12-31T18:41:03.944Z,99.90
2022-12-31T18:43:30.874Z,99.90
2022-12-31T18:45:57.846Z,99.90
2022-12-31T18:48:24.866Z,99.90
2022-12-31T18:50:51.588Z,99.90
2022-12-31T18:53:19.821Z,99.90
2022-12-31T18:55:54.183Z,99.90
2022-12-31T18:58:21.301Z,99.90
2022-12-31T19:00:48.601Z,99.90
2022-12-31T19:03:22.958Z,99.90
2022-12-31T19:05:51.149Z,99.90
2022-12-31T19:08:18.942Z,99.90
2022-12-31T19:10:45.895Z,99.90
2022-12-31T19:13:13.366Z,99.90
2022-12-31T19:15:44.425Z,99.90
2022-12-31T19:18:11.227Z,99.90
2022-12-31T19:20:38.882Z,99.90
2022-12-31T19:23:05.765Z,99.90
2022-12-31T19:25:34.018Z,99.90
2022-12-31T19:28:04.015Z,99.90
2022-12-31T19:30:32.117Z,99.90
2022-12-31T19:32:59.155Z,99.90
2022-12-31T19:35:26.464Z,99.90
2022-12-31T19:37:53.905Z,99.90
2022-12-31T19:40:24.781Z,99.90
2022-12-31T19:42:53.312Z,99.90
2022-12-31T19:45:21.012Z,99.90
2022-12-31T19:47:47.691Z,99.90
2022-12-31T19:50:18.819Z,99.90
2022-12-31T19:52:46.798Z,99.90
2022-12-31T19:55:14.673Z,99.90
2022-12-31T19:57:41.759Z,99.90
2022-12-31T20:00:10.758Z,99.90
2022-12-31T20:02:37.803Z,99.90
2022-12-31T20:05:04.711Z,99.90
2022-12-31T20:07:31.432Z,99.90
2022-12-31T20:09:58.157Z,99.90
2022-12-31T20:12:24.832Z,99.90
2022-12-31T20:14:51.463Z,99.90
2022-12-31T20:17:18.143Z,99.90
2022-12-31T20:19:44.862Z,99.90
2022-12-31T20:22:11.497Z,99.90
2022-12-31T20:24:38.241Z,99.90
2022-12-31T20:27:05.028Z,99.90
2022-12-31T20:29:31.633Z,99.90
2022-12-31T20:31:58.310Z,99.90
2022-12-31T20:34:25.181Z,99.90
2022-12-31T20:36:51.841Z,99.90
2022-12-31T20:39:18.458Z,99.90
2022-12-31T20:41:45.113Z,99.90
2022-12-31T20:44:11.796Z,99.90
2022-12-31T20:46:38.967Z,99.90
2022-12-31T20:49:05.748Z,99.90
2022-12-31T20:51:34.212Z,99.90
2022-12-31T20:54:04.842Z,99.90
2022-12-31T20:56:33.155Z,99.90
2022-12-31T20:59:00.426Z,99.90
2022-12-31T21:01:36.305Z,99.90
2022-12-31T21:04:13.974Z,99.90
2022-12-31T21:06:40.857Z,99.90
2022-12-31T21:09:08.081Z,99.90
2022-12-31T21:11:53.841Z,99.90
2022-12-31T21:14:20.854Z,99.90
2022-12-31T21:16:47.679Z,99.90
2022-12-31T21:19:14.446Z,99.90
2022-12-31T21:21:41.160Z,99.90
2022-12-31T21:24:08.092Z,99.90
2022-12-31T21:26:34.774Z,99.90
2022-12-31T21:29:01.540Z,99.90
2022-12-31T21:31:28.274Z,99.90
2022-12-31T21:33:55.226Z,99.90
2022-12-31T21:36:21.966Z,99.90
2022-12-31T21:38:48.629Z,99.90
2022-12-31T21:41:34.989Z,99.90
2022-12-31T21:44:02.321Z,99.90
2022-12-31T21:46:29.209Z,99.90
2022-12-31T21:48:59.783Z,99.90
2022-12-31T21:51:26.514Z,99.90
2022-12-31T21:53:53.239Z,99.90
2022-12-31T21:56:21.276Z,99.90
2022-12-31T21:59:11.933Z,99.90
2022-12-31T22:01:57.527Z,99.90
2022-12-31T22:05:00.254Z,99.90
2022-12-31T22:07:10.961Z,99.90
2022-12-31T22:09:37.587Z,99.90
2022-12-31T22:12:04.426Z,99.90
2022-12-31T22:14:31.238Z,99.90
2022-12-31T22:16:57.868Z,99.90
2022-12-31T22:19:24.781Z,99.90
2022-12-31T22:21:51.461Z,99.90
2022-12-31T22:24:18.349Z,99.90
2022-12-31T22:26:46.877Z,99.90
2022-12-31T22:29:13.792Z,99.90
2022-12-31T22:31:40.634Z,99.90
2022-12-31T22:34:07.445Z,99.90
2022-12-31T22:36:34.103Z,99.90
2022-12-31T22:39:00.776Z,99.90
2022-12-31T22:41:27.797Z,99.90
2022-12-31T22:44:02.606Z,99.90
2022-12-31T22:46:30.913Z,99.90
2022-12-31T22:48:58.793Z,99.90
2022-12-31T22:51:29.199Z,99.90
2022-12-31T22:54:12.201Z,99.90
2022-12-31T22:56:38.893Z,99.90
2022-12-31T22:59:05.631Z,99.90
2022-12-31T23:01:32.482Z,99.90
2022-12-31T23:03:59.293Z,99.90
2022-12-31T23:06:26.246Z,99.90
2022-12-31T23:09:11.451Z,99.90
2022-12-31T23:11:38.514Z,99.90
2022-12-31T23:14:24.821Z,99.90
2022-12-31T23:17:31.225Z,99.90
2022-12-31T23:20:15.699Z,99.90
2022-12-31T23:23:01.179Z,99.90
2022-12-31T23:25:28.034Z,99.90
2022-12-31T23:27:54.724Z,99.90
2022-12-31T23:30:21.353Z,99.90
2022-12-31T23:32:48.163Z,99.90
2022-12-31T23:35:14.965Z,99.90
2022-12-31T23:37:41.738Z,99.90
2022-12-31T23:40:08.779Z,99.90
2022-12-31T23:42:35.418Z,99.90
2022-12-31T23:45:02.089Z,99.90
2022-12-31T23:47:28.822Z,99.90
2022-12-31T23:49:55.475Z,99.90
2022-12-31T23:52:22.320Z,99.90
2022-12-31T23:54:48.972Z,99.90
2022-12-31T23:57:15.663Z,99.90
2022-12-31T23:59:42.392Z,99.90
